createdAt,value
2022-11-14T00:01:34.225Z,68.39
2022-11-14T00:04:29.226Z,68.66
2022-11-14T00:07:22.115Z,69.02
2022-11-14T00:10:12.478Z,68.90
2022-11-14T00:13:02.859Z,68.99
2022-11-14T00:15:55.855Z,69.08
2022-11-14T00:18:45.817Z,69.32
2022-11-14T00:21:36.182Z,69.20
2022-11-14T00:24:27.867Z,69.01
2022-11-14T00:27:17.897Z,68.72
2022-11-14T00:30:08.216Z,68.70
2022-11-14T00:32:57.479Z,68.72
2022-11-14T00:35:53.813Z,68.52
2022-11-14T00:38:43.556Z,68.75
2022-11-14T00:41:35.480Z,69.06
2022-11-14T00:44:24.966Z,68.84
2022-11-14T00:47:14.531Z,69.27
2022-11-14T00:50:04.878Z,69.35
2022-11-14T00:52:54.651Z,69.99
2022-11-14T00:55:44.583Z,69.97
2022-11-14T00:58:35.759Z,70.90
2022-11-14T01:01:25.936Z,71.22
2022-11-14T01:04:16.294Z,70.99
2022-11-14T01:07:05.642Z,71.05
2022-11-14T01:09:55.589Z,70.53
2022-11-14T01:12:46.030Z,63.38
2022-11-14T01:15:37.062Z,61.33
2022-11-14T01:18:26.615Z,60.38
2022-11-14T01:21:17.309Z,60.13
2022-11-14T01:24:07.673Z,60.25
2022-11-14T01:26:58.708Z,59.72
2022-11-14T01:29:48.243Z,59.94
2022-11-14T01:32:40.059Z,59.45
2022-11-14T01:35:29.387Z,59.15
2022-11-14T01:38:19.606Z,59.61
2022-11-14T01:41:09.785Z,59.14
2022-11-14T01:44:00.200Z,58.82
2022-11-14T01:46:53.789Z,58.92
2022-11-14T01:49:47.852Z,58.63
2022-11-14T01:52:38.506Z,59.48
2022-11-14T01:55:29.014Z,60.47
2022-11-14T01:58:19.284Z,61.43
2022-11-14T02:01:08.687Z,61.14
2022-11-14T02:03:59.260Z,61.18
2022-11-14T02:06:50.556Z,61.29
2022-11-14T02:09:42.329Z,61.71
2022-11-14T02:12:32.912Z,61.70
2022-11-14T02:15:22.239Z,61.54
2022-11-14T02:18:11.871Z,61.33
2022-11-14T02:21:03.415Z,61.68
2022-11-14T02:23:53.895Z,62.22
2022-11-14T02:26:44.985Z,61.69
2022-11-14T02:29:35.971Z,61.67
2022-11-14T02:32:25.708Z,61.72
2022-11-14T02:35:16.547Z,61.04
2022-11-14T02:38:08.070Z,60.20
2022-11-14T02:41:04.838Z,58.43
2022-11-14T02:43:54.218Z,57.23
2022-11-14T02:46:44.651Z,56.21
2022-11-14T02:49:38.083Z,55.29
2022-11-14T02:52:28.601Z,54.66
2022-11-14T02:55:20.191Z,54.14
2022-11-14T02:58:13.638Z,54.00
2022-11-14T03:01:20.282Z,53.82
2022-11-14T03:04:11.514Z,54.43
2022-11-14T03:07:01.528Z,55.61
2022-11-14T03:09:51.271Z,54.76
2022-11-14T03:12:42.077Z,54.91
2022-11-14T03:15:31.883Z,54.54
2022-11-14T03:18:22.407Z,55.01
2022-11-14T03:21:12.546Z,53.90
2022-11-14T03:24:02.585Z,54.70
2022-11-14T03:26:52.038Z,53.73
2022-11-14T03:29:43.896Z,53.25
2022-11-14T03:32:33.792Z,52.86
2022-11-14T03:35:24.540Z,52.40
2022-11-14T03:38:14.265Z,52.37
2022-11-14T03:41:04.435Z,53.08
2022-11-14T03:43:53.959Z,52.84
2022-11-14T03:46:45.481Z,52.51
2022-11-14T03:49:34.868Z,52.20
2022-11-14T03:52:24.594Z,52.60
2022-11-14T03:55:14.661Z,52.71
2022-11-14T03:58:04.593Z,51.87
2022-11-14T04:00:54.979Z,51.87
2022-11-14T04:03:47.533Z,51.06
2022-11-14T04:06:37.238Z,52.28
2022-11-14T04:09:27.503Z,52.15
2022-11-14T04:12:17.277Z,52.88
2022-11-14T04:15:06.908Z,53.32
2022-11-14T04:17:56.819Z,52.34
2022-11-14T04:20:47.989Z,51.17
2022-11-14T04:23:37.714Z,51.72
2022-11-14T04:26:27.283Z,51.41
2022-11-14T04:29:17.058Z,50.70
2022-11-14T04:32:07.710Z,49.89
2022-11-14T04:34:59.702Z,50.22
2022-11-14T04:37:51.538Z,49.86
2022-11-14T04:40:41.007Z,49.37
2022-11-14T04:43:30.967Z,49.31
2022-11-14T04:46:20.497Z,47.87
2022-11-14T04:49:10.068Z,48.62
2022-11-14T04:52:00.114Z,47.95
2022-11-14T04:54:51.235Z,47.27
2022-11-14T04:57:40.717Z,46.90
2022-11-14T05:00:30.682Z,46.67
2022-11-14T05:03:20.720Z,46.35
2022-11-14T05:06:11.192Z,46.50
2022-11-14T05:09:08.520Z,46.50
2022-11-14T05:12:03.109Z,47.90
2022-11-14T05:14:53.151Z,47.23
2022-11-14T05:17:42.591Z,47.32
2022-11-14T05:20:32.478Z,46.98
2022-11-14T05:23:23.604Z,46.92
2022-11-14T05:26:16.003Z,45.94
2022-11-14T05:29:07.938Z,46.23
2022-11-14T05:31:58.213Z,45.05
2022-11-14T05:34:48.066Z,44.98
2022-11-14T05:37:38.517Z,45.62
2022-11-14T05:40:28.636Z,45.66
2022-11-14T05:43:19.805Z,45.58
2022-11-14T05:46:14.107Z,45.98
2022-11-14T05:49:05.243Z,44.88
2022-11-14T05:51:54.490Z,44.56
2022-11-14T05:54:47.656Z,45.35
2022-11-14T05:57:39.033Z,44.35
2022-11-14T06:00:29.866Z,44.24
2022-11-14T06:03:22.303Z,44.18
2022-11-14T06:06:13.321Z,43.38
2022-11-14T06:09:03.066Z,44.07
2022-11-14T06:11:53.791Z,43.39
2022-11-14T06:14:43.227Z,44.08
2022-11-14T06:17:33.202Z,44.84
2022-11-14T06:20:25.167Z,44.63
2022-11-14T06:23:16.764Z,43.95
2022-11-14T06:26:09.765Z,43.86
2022-11-14T06:29:00.578Z,43.18
2022-11-14T06:31:50.806Z,43.64
2022-11-14T06:34:40.674Z,43.09
2022-11-14T06:37:33.850Z,42.08
2022-11-14T06:40:23.715Z,41.53
2022-11-14T06:43:13.396Z,41.74
2022-11-14T06:46:03.094Z,42.32
2022-11-14T06:48:53.994Z,42.28
2022-11-14T06:51:44.342Z,42.69
2022-11-14T06:54:36.956Z,42.90
2022-11-14T06:57:53.060Z,42.77
2022-11-14T07:00:48.979Z,41.66
2022-11-14T07:03:40.929Z,40.69
2022-11-14T07:06:31.051Z,39.97
2022-11-14T07:09:20.595Z,39.75
2022-11-14T07:12:17.670Z,39.76
2022-11-14T07:15:08.088Z,40.76
2022-11-14T07:17:58.169Z,40.22
2022-11-14T07:20:50.615Z,39.90
2022-11-14T07:23:41.390Z,39.66
2022-11-14T07:26:31.818Z,39.90
2022-11-14T07:29:23.318Z,38.67
2022-11-14T07:32:13.110Z,39.34
2022-11-14T07:35:03.169Z,37.74
2022-11-14T07:37:53.307Z,37.92
2022-11-14T07:40:43.396Z,39.21
2022-11-14T07:43:33.591Z,39.91
2022-11-14T07:46:25.198Z,37.65
2022-11-14T07:49:14.824Z,38.66
2022-11-14T07:52:05.002Z,37.48
2022-11-14T07:54:57.863Z,38.86
2022-11-14T07:57:49.404Z,37.86
2022-11-14T08:00:40.073Z,37.83
2022-11-14T08:03:33.037Z,38.11
2022-11-14T08:06:23.342Z,38.91
2022-11-14T08:09:13.815Z,38.44
2022-11-14T08:12:04.246Z,38.00
2022-11-14T08:14:55.056Z,35.94
2022-11-14T08:17:45.245Z,36.06
2022-11-14T08:20:36.822Z,37.45
2022-11-14T08:23:27.091Z,37.94
2022-11-14T08:26:17.209Z,38.23
2022-11-14T08:29:08.290Z,38.21
2022-11-14T08:32:00.096Z,37.14
2022-11-14T08:34:50.531Z,37.28
2022-11-14T08:37:43.783Z,38.08
2022-11-14T08:40:33.987Z,36.91
2022-11-14T08:43:24.235Z,36.79
2022-11-14T08:46:14.910Z,36.79
2022-11-14T08:49:04.689Z,35.87
2022-11-14T08:51:55.410Z,36.95
2022-11-14T08:54:47.074Z,38.87
2022-11-14T08:57:36.323Z,36.85
2022-11-14T09:00:27.090Z,36.89
2022-11-14T09:03:17.678Z,37.56
2022-11-14T09:06:08.205Z,35.79
2022-11-14T09:08:58.203Z,35.31
2022-11-14T09:11:49.389Z,36.98
2022-11-14T09:14:39.377Z,36.57
2022-11-14T09:17:29.977Z,36.31
2022-11-14T09:20:21.314Z,36.43
2022-11-14T09:23:13.749Z,35.70
2022-11-14T09:26:09.227Z,36.68
2022-11-14T09:29:01.742Z,35.61
2022-11-14T09:31:54.861Z,35.58
2022-11-14T09:34:47.361Z,35.74
2022-11-14T09:37:38.986Z,36.08
2022-11-14T09:40:29.446Z,35.68
2022-11-14T09:43:29.446Z,34.41
2022-11-14T09:46:25.134Z,34.35
2022-11-14T09:49:23.657Z,35.00
2022-11-14T09:52:18.067Z,36.40
2022-11-14T09:55:14.633Z,36.99
2022-11-14T09:58:06.028Z,36.74
2022-11-14T10:01:07.923Z,36.44
2022-11-14T10:04:08.303Z,35.92
2022-11-14T10:07:04.696Z,35.09
2022-11-14T10:10:01.196Z,35.29
2022-11-14T10:12:56.223Z,35.84
2022-11-14T10:15:50.128Z,35.92
2022-11-14T10:18:48.429Z,36.24
2022-11-14T10:21:44.614Z,35.87
2022-11-14T10:24:43.053Z,36.87
2022-11-14T10:27:36.052Z,35.71
2022-11-14T10:30:27.052Z,38.32
2022-11-14T10:33:24.238Z,37.42
2022-11-14T10:36:18.805Z,37.46
2022-11-14T10:39:18.353Z,37.67
2022-11-14T10:42:14.665Z,37.74
2022-11-14T10:45:08.449Z,38.22
2022-11-14T10:48:01.421Z,38.31
2022-11-14T10:50:56.683Z,38.29
2022-11-14T10:53:51.898Z,37.09
2022-11-14T10:56:52.074Z,36.34
2022-11-14T10:59:42.639Z,39.76
2022-11-14T11:02:50.344Z,42.47
2022-11-14T11:05:49.090Z,45.00
2022-11-14T11:09:01.914Z,45.81
2022-11-14T11:11:58.424Z,46.63
2022-11-14T11:14:49.291Z,47.33
2022-11-14T11:17:42.937Z,48.10
2022-11-14T11:20:34.498Z,48.16
2022-11-14T11:23:28.580Z,48.47
2022-11-14T11:26:25.717Z,49.42
2022-11-14T11:29:21.334Z,49.86
2022-11-14T11:32:11.851Z,49.90
2022-11-14T11:35:03.954Z,50.42
2022-11-14T11:37:56.986Z,50.43
2022-11-14T11:40:47.036Z,50.28
2022-11-14T11:43:42.691Z,50.80
2022-11-14T11:46:38.391Z,50.94
2022-11-14T11:49:35.945Z,51.63
2022-11-14T11:52:31.889Z,51.97
2022-11-14T11:55:24.150Z,52.13
2022-11-14T11:58:19.424Z,52.93
2022-11-14T12:01:09.048Z,53.08
2022-11-14T12:04:01.120Z,53.21
2022-11-14T12:06:57.678Z,53.26
2022-11-14T12:10:09.737Z,53.61
2022-11-14T12:13:08.424Z,53.94
2022-11-14T12:16:06.573Z,53.75
2022-11-14T12:19:11.745Z,53.72
2022-11-14T12:22:14.528Z,54.07
2022-11-14T12:25:12.378Z,54.60
2022-11-14T12:28:12.370Z,55.89
2022-11-14T12:31:04.801Z,56.41
2022-11-14T12:33:57.401Z,56.01
2022-11-14T12:36:50.161Z,56.37
2022-11-14T12:39:40.498Z,56.76
2022-11-14T12:42:31.871Z,56.43
2022-11-14T12:45:39.908Z,55.79
2022-11-14T12:48:40.058Z,55.91
2022-11-14T12:51:47.812Z,56.37
2022-11-14T12:54:50.802Z,56.19
2022-11-14T12:57:53.295Z,56.21
2022-11-14T13:01:02.626Z,56.85
2022-11-14T13:03:58.966Z,56.82
2022-11-14T13:06:56.123Z,56.69
2022-11-14T13:09:57.506Z,56.70
2022-11-14T13:13:16.730Z,58.03
2022-11-14T13:16:38.595Z,58.02
2022-11-14T13:19:45.733Z,56.86
2022-11-14T13:22:47.426Z,56.12
2022-11-14T13:25:37.621Z,56.37
2022-11-14T13:28:46.058Z,56.92
2022-11-14T13:31:53.071Z,57.33
2022-11-14T13:34:54.432Z,57.40
2022-11-14T13:38:03.032Z,57.04
2022-11-14T13:40:57.176Z,57.19
2022-11-14T13:43:59.843Z,57.57
2022-11-14T13:47:12.411Z,57.33
2022-11-14T13:50:06.678Z,57.19
2022-11-14T13:52:56.254Z,57.05
2022-11-14T13:55:59.583Z,57.10
2022-11-14T13:59:00.381Z,57.30
2022-11-14T14:02:08.769Z,56.99
2022-11-14T14:05:04.164Z,56.20
2022-11-14T14:08:08.192Z,55.96
2022-11-14T14:11:04.131Z,56.40
2022-11-14T14:13:59.536Z,56.14
2022-11-14T14:16:59.784Z,56.21
2022-11-14T14:19:57.029Z,56.03
2022-11-14T14:22:51.179Z,60.25
2022-11-14T14:25:45.657Z,62.01
2022-11-14T14:28:42.586Z,62.33
2022-11-14T14:31:37.563Z,62.73
2022-11-14T14:34:28.646Z,62.33
2022-11-14T14:37:22.432Z,62.50
2022-11-14T14:40:26.355Z,62.90
2022-11-14T14:43:26.324Z,62.63
2022-11-14T14:46:16.164Z,61.80
2022-11-14T14:49:07.669Z,62.21
2022-11-14T14:51:58.920Z,61.91
2022-11-14T14:54:57.573Z,58.19
2022-11-14T14:57:47.193Z,56.52
2022-11-14T15:00:40.098Z,53.57
2022-11-14T15:03:36.623Z,55.19
2022-11-14T15:06:31.483Z,55.79
2022-11-14T15:09:23.071Z,54.19
2022-11-14T15:12:13.073Z,54.35
2022-11-14T15:15:03.675Z,54.73
2022-11-14T15:18:00.195Z,54.54
2022-11-14T15:21:10.335Z,54.88
2022-11-14T15:24:05.947Z,54.16
2022-11-14T15:26:56.266Z,54.60
2022-11-14T15:29:50.186Z,54.72
2022-11-14T15:32:39.817Z,55.38
2022-11-14T15:35:36.143Z,56.06
2022-11-14T15:41:36.616Z,53.01
2022-11-14T15:44:33.349Z,55.28
2022-11-14T15:47:26.006Z,55.28
2022-11-14T15:50:29.015Z,55.48
2022-11-14T15:53:25.686Z,54.85
2022-11-14T15:56:19.148Z,53.92
2022-11-14T15:59:09.228Z,54.17
2022-11-14T16:02:02.927Z,55.66
2022-11-14T16:04:55.134Z,55.38
2022-11-14T16:07:45.110Z,56.88
2022-11-14T16:10:41.093Z,58.42
2022-11-14T16:13:36.993Z,58.42
2022-11-14T16:16:27.656Z,58.74
2022-11-14T16:19:20.589Z,59.15
2022-11-14T16:22:16.361Z,58.83
2022-11-14T16:25:07.180Z,58.99
2022-11-14T16:28:00.561Z,58.55
2022-11-14T16:30:50.828Z,59.04
2022-11-14T16:33:41.813Z,59.10
2022-11-14T16:36:31.930Z,58.82
2022-11-14T16:39:21.637Z,59.87
2022-11-14T16:42:13.498Z,60.84
2022-11-14T16:45:05.234Z,61.44
2022-11-14T16:47:55.244Z,61.78
2022-11-14T16:50:45.253Z,61.28
2022-11-14T16:53:34.626Z,61.47
2022-11-14T16:56:23.884Z,62.05
2022-11-14T16:59:13.992Z,61.62
2022-11-14T17:02:08.918Z,62.14
2022-11-14T17:04:59.166Z,62.81
2022-11-14T17:07:49.255Z,62.58
2022-11-14T17:10:43.164Z,62.27
2022-11-14T17:13:33.571Z,63.54
2022-11-14T17:16:23.422Z,62.77
2022-11-14T17:19:14.937Z,63.30
2022-11-14T17:22:05.372Z,63.78
2022-11-14T17:24:55.293Z,64.46
2022-11-14T17:27:46.040Z,64.23
2022-11-14T17:30:35.394Z,65.63
2022-11-14T17:33:25.585Z,65.31
2022-11-14T17:36:17.181Z,65.10
2022-11-14T17:39:07.157Z,67.35
2022-11-14T17:41:57.014Z,66.65
2022-11-14T17:44:46.823Z,65.98
2022-11-14T17:47:37.038Z,67.43
2022-11-14T17:50:27.292Z,66.26
2022-11-14T17:53:19.046Z,66.51
2022-11-14T17:56:09.792Z,68.33
2022-11-14T17:58:59.380Z,67.65
2022-11-14T18:01:49.928Z,67.20
2022-11-14T18:04:39.510Z,66.51
2022-11-14T18:07:29.864Z,64.89
2022-11-14T18:10:21.081Z,64.42
2022-11-14T18:13:10.204Z,63.86
2022-11-14T18:16:03.919Z,63.23
2022-11-14T18:18:54.456Z,63.27
2022-11-14T18:21:47.915Z,64.15
2022-11-14T18:24:42.926Z,64.21
2022-11-14T18:27:34.656Z,64.39
2022-11-14T18:33:33.385Z,64.77
2022-11-14T18:36:23.544Z,65.49
2022-11-14T18:39:13.707Z,65.75
2022-11-14T18:42:04.384Z,66.18
2022-11-14T18:44:55.553Z,65.66
2022-11-14T18:47:45.685Z,65.02
2022-11-14T18:50:35.484Z,64.58
2022-11-14T18:53:25.213Z,64.35
2022-11-14T18:56:16.119Z,65.46
2022-11-14T18:59:06.580Z,65.25
2022-11-14T19:01:59.840Z,64.77
2022-11-14T19:04:49.031Z,65.55
2022-11-14T19:07:39.946Z,65.34
2022-11-14T19:10:29.180Z,66.17
2022-11-14T19:13:18.254Z,66.26
2022-11-14T19:16:08.560Z,66.40
2022-11-14T19:18:59.773Z,65.90
2022-11-14T19:21:51.472Z,66.07
2022-11-14T19:24:44.362Z,66.60
2022-11-14T19:27:33.371Z,66.05
2022-11-14T19:30:23.254Z,66.96
2022-11-14T19:33:13.209Z,66.86
2022-11-14T19:36:07.672Z,65.45
2022-11-14T19:38:57.398Z,64.88
2022-11-14T19:41:47.220Z,63.16
2022-11-14T19:44:36.779Z,61.97
2022-11-14T19:47:26.635Z,61.98
2022-11-14T19:50:16.119Z,62.11
2022-11-14T19:53:07.445Z,62.42
2022-11-14T19:56:01.589Z,62.66
2022-11-14T19:58:52.528Z,61.79
2022-11-14T20:01:43.444Z,62.25
2022-11-14T20:04:37.802Z,63.07
2022-11-14T20:07:27.541Z,62.37
2022-11-14T20:10:19.643Z,62.17
2022-11-14T20:13:09.626Z,62.10
2022-11-14T20:15:59.222Z,63.47
2022-11-14T20:18:54.445Z,64.90
2022-11-14T20:21:47.149Z,65.20
2022-11-14T20:24:37.259Z,66.72
2022-11-14T20:27:28.276Z,66.19
2022-11-14T20:30:18.382Z,66.10
2022-11-14T20:33:07.793Z,66.17
2022-11-14T20:35:57.461Z,66.26
2022-11-14T20:38:47.218Z,66.44
2022-11-14T20:41:36.954Z,65.21
2022-11-14T20:44:27.856Z,63.67
2022-11-14T20:47:18.781Z,63.62
2022-11-14T20:50:08.577Z,63.54
2022-11-14T20:52:58.180Z,63.00
2022-11-14T20:55:47.939Z,63.45
2022-11-14T20:58:36.916Z,63.42
2022-11-14T21:01:28.115Z,63.13
2022-11-14T21:04:17.585Z,64.11
2022-11-14T21:07:07.468Z,64.65
2022-11-14T21:10:10.538Z,63.42
2022-11-14T21:13:16.307Z,64.95
2022-11-14T21:16:06.116Z,65.32
2022-11-14T21:18:58.329Z,65.82
2022-11-14T21:21:47.967Z,65.92
2022-11-14T21:24:39.794Z,65.78
2022-11-14T21:27:29.148Z,64.18
2022-11-14T21:30:19.144Z,63.94
2022-11-14T21:33:08.456Z,65.55
2022-11-14T21:36:16.615Z,65.56
2022-11-14T21:39:16.353Z,65.88
2022-11-14T21:42:05.897Z,65.96
2022-11-14T21:44:55.057Z,66.95
2022-11-14T21:47:44.959Z,67.73
2022-11-14T21:50:36.058Z,67.06
2022-11-14T21:53:27.316Z,67.89
2022-11-14T21:56:18.146Z,67.67
2022-11-14T21:59:19.837Z,67.53
2022-11-14T22:02:27.131Z,67.27
2022-11-14T22:05:17.005Z,67.55
2022-11-14T22:08:07.287Z,68.32
2022-11-14T22:11:03.207Z,68.09
2022-11-14T22:13:53.189Z,67.66
2022-11-14T22:16:42.868Z,68.01
2022-11-14T22:19:32.154Z,67.91
2022-11-14T22:22:21.599Z,68.25
2022-11-14T22:25:11.992Z,68.20
2022-11-14T22:28:02.782Z,68.02
2022-11-14T22:30:52.402Z,68.00
2022-11-14T22:33:46.663Z,67.62
2022-11-14T22:36:36.871Z,67.54
2022-11-14T22:39:26.176Z,68.25
2022-11-14T22:42:15.701Z,68.31
2022-11-14T22:45:07.364Z,68.17
2022-11-14T22:47:59.763Z,68.23
2022-11-14T22:50:48.943Z,67.82
2022-11-14T22:53:38.970Z,68.11
2022-11-14T22:56:29.794Z,68.19
2022-11-14T22:59:19.463Z,68.20
2022-11-14T23:02:10.757Z,68.27
2022-11-14T23:05:00.879Z,67.95
2022-11-14T23:07:50.611Z,68.03
2022-11-14T23:10:39.851Z,68.12
2022-11-14T23:13:30.264Z,68.01
2022-11-14T23:16:20.926Z,67.01
2022-11-14T23:19:12.035Z,65.78
2022-11-14T23:22:01.534Z,65.76
2022-11-14T23:24:51.183Z,67.99
2022-11-14T23:27:40.880Z,68.73
2022-11-14T23:30:30.136Z,68.13
2022-11-14T23:33:19.709Z,65.68
2022-11-14T23:36:11.067Z,64.33
2022-11-14T23:39:00.856Z,66.16
2022-11-14T23:41:50.450Z,68.17
2022-11-14T23:44:39.731Z,68.62
2022-11-14T23:47:29.302Z,68.48
2022-11-14T23:50:19.440Z,66.20
2022-11-14T23:53:10.312Z,66.34
2022-11-14T23:56:00.912Z,66.93
2022-11-14T23:58:50.497Z,66.98
